Terminal Aerodrome Forecast
Issued by NWS

Current Version | Previous Version | Graphics & Text | Print | Product List | Glossary On
Versions: 1 2 3 4 5 6 7 8 9 10 11 12 13 14 15 16 17 18 19 20 21 22 23 24 25 26 27 28 29 30
000
FTUS41 KPBZ 160406 AAB
TAFHLG
TAF AMD
KHLG 160406Z 1604/1624 24013G25KT 5SM -RA OVC040
      TEMPO 1604/1607 2SM -RA OVC015
     FM160700 31011G20KT 5SM -RA OVC015
     FM161100 30011G19KT 3SM -RA OVC020
     FM161800 31011G20KT P6SM OVC030=

USA.gov is the U.S. government's official web portal to all federal, state and local government web resources and services.